Clarks Grove, MN

10:11 AM CST on January 16, 2017 (GMT -0600)
South Geneva Lake | | Change Station
Active Advisory: Winter Weather Advisory

Elev 1207 ft 43.77 °N, 93.27 °W | Updated 41 minutes ago

Overcast
Overcast
31.0 °F
Feels Like 26 °F
N
5.0
Wind Variable Wind from ESE
Gusts 8.0 mph

Today
High -- | Low -- °F
--% Chance of Precip.
Yesterday
High -- | Low -- °F
Precip. -- in
Pressure 30.10 in
Visibility 4.0 miles
Clouds Overcast 600 ft
Windchill 26 °F
Dew Point 25 °F
Humidity 78%
Rainfall 0.00 in
Snow Depth Not available.
7:43 AM 5:03 PM
Waning Gibbous, 80% visible
METAR KAEL 161551Z AUTO 13007KT 4SM BR OVC006 M01/M02 A3010 RMK AO2
Pressure 30.10 in
Visibility 4.0 miles
Clouds Overcast 600 ft
Windchill 26 °F
Dew Point 25 °F
Humidity 78%
Rainfall 0.00 in
Snow Depth Not available.
7:43 AM 5:03 PM
Waning Gibbous, 80% visible
METAR KAEL 161551Z AUTO 13007KT 4SM BR OVC006 M01/M02 A3010 RMK AO2

Get Your Daily Forecast Email!

Thanks for signing up!

Be on the lookout for a verification email in your inbox.

You'll start receiving the daily forecast at 8 AM.

×

10-Day Weather Forecast

Almanac

Astronomy

Jan. 16, 2017 Rise Set
Actual Time
Civil Twilight
Nautical Twilight
Astronomical Twilight
Moon
Length of Visible Light
Length of Day
Tomorrow will be .
, % of the Moon is Illuminated

Today's Extremes

State Highs State Lows

Community

WunderPhotos

Upload Photos

1,962,540 photos uploaded!

WunderBlog® & News

Nearby

Air Quality

  Air Quality AQ Index Pollutant
Not available.

Snow Depth

Station Depth Elevation

Earthquake Activity

City Distance Mag. Time & Date
Minimum magnitude displayed is 2.5.

Coastal Water Temperatures

Place Temperature

Stations

Nearby Weather Stations

Station Location Temp. Windchill Dew Point Humidity Wind Precip. Elev Updated Type
                   

Watches & Warnings

Winter Weather Advisory
Issued: 10:03 AM CST Jan. 16, 2017 – National Weather Service

... Winter Weather Advisory remains in effect until 6 am CST
Tuesday...

* expect a wintry mix to develop this afternoon... then diminish
later tonight.

* Additional wet snow accumulations of up to 1 inch and ice
accumulations of a light icing are expected.

* Look for reduced visibilities at times.

* The ice will result in difficult travel conditions... including
during the evening commute.

Precautionary/preparedness actions...

A Winter Weather Advisory means that periods of snow... sleet or
freezing rain will cause travel difficulties. Be prepared for
slippery roads and limited visibilities... and use caution while
driving. The latest Road conditions for the state you are calling
from can be obtained by calling 5 1 1.